UAL1625 KAUS-KORD
Flight info
| Callsign | UAL1625 |
|---|---|
| Flight time | 2h 10m |
| Altitude | 39000 |
| Route | ELOEL3 KLNGR FUZ MLC SGF WELTS TRTLL6 |
| Aircraft | B38M/M-SDE1FGHILORVWXY/HB1 |
Departure
| Time | 2026-05-05 21:44 |
|---|---|
| Airport | Austin Bergstrom International Airport (KAUS) |
Arrival
| Time | 2026-05-05 23:54 |
|---|---|
| Airport | Chicago O'Hare International Airport (KORD) |
| Time | Latitude | Longitude | Altitude | Speed | Heading |
|---|---|---|---|---|---|
| 2026-05-05 21:26 | 30.20266 | -97.67069 | 530 ft | 0 kts | 179° |
| 2026-05-05 21:35 | 30.20287 | -97.67068 | 530 ft | 4 kts | 189° |
| 2026-05-05 21:35 | 30.20311 | -97.67058 | 530 ft | 4 kts | 217° |
| 2026-05-05 21:36 | 30.20324 | -97.67037 | 530 ft | 2 kts | 267° |
| 2026-05-05 21:36 | 30.20324 | -97.67034 | 530 ft | 1 kts | 269° |
| 2026-05-05 21:38 | 30.20324 | -97.67048 | 530 ft | 3 kts | 269° |
| 2026-05-05 21:38 | 30.20323 | -97.67091 | 530 ft | 8 kts | 269° |
| 2026-05-05 21:39 | 30.20322 | -97.67171 | 530 ft | 9 kts | 269° |
| 2026-05-05 21:39 | 30.20269 | -97.67213 | 530 ft | 13 kts | 179° |
| 2026-05-05 21:39 | 30.20165 | -97.67211 | 530 ft | 17 kts | 179° |
| 2026-05-05 21:39 | 30.20091 | -97.67168 | 530 ft | 11 kts | 99° |
| 2026-05-05 21:40 | 30.20092 | -97.67064 | 530 ft | 15 kts | 88° |
| 2026-05-05 21:40 | 30.20068 | -97.66993 | 530 ft | 7 kts | 162° |
| 2026-05-05 21:40 | 30.20006 | -97.66988 | 530 ft | 11 kts | 179° |
| 2026-05-05 21:40 | 30.19915 | -97.66970 | 530 ft | 15 kts | 135° |
| 2026-05-05 21:41 | 30.19903 | -97.66838 | 530 ft | 19 kts | 89° |
| 2026-05-05 21:41 | 30.19906 | -97.66667 | 530 ft | 24 kts | 89° |
| 2026-05-05 21:41 | 30.19910 | -97.66460 | 530 ft | 28 kts | 89° |
| 2026-05-05 21:41 | 30.19915 | -97.66223 | 530 ft | 30 kts | 89° |
| 2026-05-05 21:42 | 30.19926 | -97.66016 | 530 ft | 19 kts | 63° |
| 2026-05-05 21:42 | 30.20021 | -97.65990 | 530 ft | 15 kts | 358° |
| 2026-05-05 21:42 | 30.20137 | -97.65993 | 530 ft | 18 kts | 357° |
| 2026-05-05 21:42 | 30.20275 | -97.65998 | 530 ft | 22 kts | 358° |
| 2026-05-05 21:43 | 30.20370 | -97.65934 | 530 ft | 15 kts | 85° |
| 2026-05-05 21:43 | 30.20369 | -97.65810 | 531 ft | 10 kts | 107° |
| 2026-05-05 21:43 | 30.20336 | -97.65789 | 531 ft | 5 kts | 178° |
| 2026-05-05 21:43 | 30.20258 | -97.65787 | 529 ft | 22 kts | 179° |
| 2026-05-05 21:44 | 30.19854 | -97.65777 | 527 ft | 97 kts | 178° |
| 2026-05-05 21:44 | 30.18948 | -97.65754 | 573 ft | 158 kts | 179° |
| 2026-05-05 21:44 | 30.17796 | -97.65732 | 1304 ft | 174 kts | 179° |
| 2026-05-05 21:44 | 30.16569 | -97.65780 | 2309 ft | 178 kts | 192° |
| 2026-05-05 21:45 | 30.15390 | -97.66505 | 2692 ft | 214 kts | 221° |
| 2026-05-05 21:45 | 30.14545 | -97.68071 | 3209 ft | 240 kts | 250° |
| 2026-05-05 21:45 | 30.14403 | -97.70011 | 4087 ft | 255 kts | 269° |
| 2026-05-05 21:45 | 30.14496 | -97.72103 | 4971 ft | 260 kts | 270° |
| 2026-05-05 21:46 | 30.14644 | -97.74163 | 6039 ft | 262 kts | 280° |
| 2026-05-05 21:46 | 30.15401 | -97.76112 | 6884 ft | 274 kts | 303° |
| 2026-05-05 21:46 | 30.16862 | -97.77570 | 7715 ft | 286 kts | 327° |
| 2026-05-05 21:46 | 30.18785 | -97.78323 | 8496 ft | 299 kts | 348° |
| 2026-05-05 21:47 | 30.20883 | -97.78623 | 9326 ft | 306 kts | 348° |
| 2026-05-05 21:47 | 30.23018 | -97.78934 | 10118 ft | 312 kts | 348° |
| 2026-05-05 21:47 | 30.25173 | -97.79240 | 10815 ft | 321 kts | 348° |
| 2026-05-05 21:47 | 30.27442 | -97.79562 | 11376 ft | 335 kts | 348° |
| 2026-05-05 21:48 | 30.29780 | -97.79889 | 12146 ft | 338 kts | 348° |
| 2026-05-05 21:48 | 30.32112 | -97.80207 | 13082 ft | 339 kts | 347° |
| 2026-05-05 21:48 | 30.34480 | -97.80531 | 13843 ft | 344 kts | 347° |
| 2026-05-05 21:48 | 30.36862 | -97.80854 | 14610 ft | 347 kts | 347° |
| 2026-05-05 21:49 | 30.39280 | -97.81185 | 15326 ft | 352 kts | 346° |
| 2026-05-05 21:49 | 30.41733 | -97.81518 | 16047 ft | 356 kts | 346° |
| 2026-05-05 21:49 | 30.44208 | -97.81856 | 16745 ft | 360 kts | 346° |
| 2026-05-05 21:49 | 30.46675 | -97.82192 | 17447 ft | 364 kts | 346° |
| 2026-05-05 21:50 | 30.49211 | -97.82539 | 18128 ft | 368 kts | 346° |
| 2026-05-05 21:50 | 30.51776 | -97.82890 | 18727 ft | 372 kts | 346° |
| 2026-05-05 21:50 | 30.54354 | -97.83241 | 19352 ft | 374 kts | 345° |
| 2026-05-05 21:50 | 30.56948 | -97.83595 | 19973 ft | 377 kts | 345° |
| 2026-05-05 21:51 | 30.59564 | -97.83952 | 20590 ft | 379 kts | 344° |
| 2026-05-05 21:51 | 30.62197 | -97.84312 | 21182 ft | 381 kts | 344° |
| 2026-05-05 21:51 | 30.64842 | -97.84673 | 21788 ft | 384 kts | 343° |
| 2026-05-05 21:51 | 30.67504 | -97.85036 | 22389 ft | 386 kts | 343° |
| 2026-05-05 21:52 | 30.72880 | -97.85771 | 23494 ft | 392 kts | 342° |
| 2026-05-05 21:52 | 30.75495 | -97.86449 | 23932 ft | 380 kts | 330° |
| 2026-05-05 21:52 | 30.78028 | -97.87407 | 24345 ft | 385 kts | 332° |
| 2026-05-05 21:53 | 30.80587 | -97.88355 | 24811 ft | 387 kts | 331° |
| 2026-05-05 21:53 | 30.83156 | -97.89310 | 25254 ft | 389 kts | 331° |
| 2026-05-05 21:53 | 30.85738 | -97.90271 | 25677 ft | 391 kts | 331° |
| 2026-05-05 21:53 | 30.88343 | -97.91241 | 26125 ft | 394 kts | 330° |
| 2026-05-05 21:54 | 30.90961 | -97.92213 | 26553 ft | 396 kts | 330° |
| 2026-05-05 21:54 | 30.93595 | -97.93189 | 26979 ft | 399 kts | 330° |
| 2026-05-05 21:54 | 30.96208 | -97.94158 | 27405 ft | 401 kts | 330° |
| 2026-05-05 21:54 | 30.98913 | -97.95162 | 27830 ft | 403 kts | 330° |
| 2026-05-05 21:55 | 31.01597 | -97.96159 | 28219 ft | 406 kts | 330° |
| 2026-05-05 21:55 | 31.04263 | -97.97149 | 28617 ft | 408 kts | 330° |
| 2026-05-05 21:55 | 31.06982 | -97.98160 | 29035 ft | 411 kts | 330° |
| 2026-05-05 21:55 | 31.09711 | -97.99175 | 29423 ft | 413 kts | 329° |
| 2026-05-05 21:56 | 31.12464 | -98.00200 | 29793 ft | 416 kts | 329° |
| 2026-05-05 21:56 | 31.15233 | -98.01231 | 30098 ft | 419 kts | 329° |
| 2026-05-05 21:56 | 31.18016 | -98.02265 | 30402 ft | 422 kts | 330° |
| 2026-05-05 21:56 | 31.20970 | -98.02922 | 30756 ft | 446 kts | 345° |
| 2026-05-05 21:57 | 31.24135 | -98.02655 | 31184 ft | 470 kts | 0° |
| 2026-05-05 21:57 | 31.27309 | -98.01417 | 31538 ft | 491 kts | 14° |
| 2026-05-05 21:57 | 31.30431 | -97.99780 | 31844 ft | 492 kts | 13° |
| 2026-05-05 21:57 | 31.33591 | -97.98192 | 32077 ft | 495 kts | 13° |
| 2026-05-05 21:58 | 31.36722 | -97.96606 | 32399 ft | 497 kts | 13° |
| 2026-05-05 21:58 | 31.39900 | -97.94993 | 32693 ft | 499 kts | 13° |
| 2026-05-05 21:58 | 31.43091 | -97.93372 | 32982 ft | 502 kts | 13° |
| 2026-05-05 21:58 | 31.46306 | -97.91738 | 33285 ft | 503 kts | 13° |
| 2026-05-05 21:59 | 31.49527 | -97.90099 | 33575 ft | 506 kts | 13° |
| 2026-05-05 21:59 | 31.52757 | -97.88454 | 33832 ft | 508 kts | 13° |
| 2026-05-05 21:59 | 31.56007 | -97.86798 | 34081 ft | 510 kts | 13° |
| 2026-05-05 21:59 | 31.59264 | -97.85137 | 34377 ft | 510 kts | 13° |
| 2026-05-05 22:00 | 31.62520 | -97.83475 | 34644 ft | 511 kts | 13° |
| 2026-05-05 22:00 | 31.65781 | -97.81810 | 34934 ft | 512 kts | 13° |
| 2026-05-05 22:00 | 31.69040 | -97.80143 | 35288 ft | 510 kts | 13° |
| 2026-05-05 22:00 | 31.72283 | -97.78484 | 35667 ft | 507 kts | 13° |
| 2026-05-05 22:01 | 31.75515 | -97.76830 | 36029 ft | 505 kts | 13° |
| 2026-05-05 22:01 | 31.78736 | -97.75180 | 36372 ft | 503 kts | 13° |
| 2026-05-05 22:01 | 31.81943 | -97.73535 | 36692 ft | 502 kts | 13° |
| 2026-05-05 22:01 | 31.85140 | -97.71895 | 36984 ft | 501 kts | 13° |
| 2026-05-05 22:02 | 31.88333 | -97.70256 | 37261 ft | 501 kts | 13° |
| 2026-05-05 22:02 | 31.91518 | -97.68619 | 37531 ft | 500 kts | 12° |
| 2026-05-05 22:02 | 31.94719 | -97.66973 | 37764 ft | 500 kts | 13° |
| 2026-05-05 22:02 | 31.97867 | -97.65353 | 37990 ft | 500 kts | 13° |
| 2026-05-05 22:03 | 32.01052 | -97.63713 | 38195 ft | 500 kts | 13° |
| 2026-05-05 22:03 | 32.04241 | -97.62070 | 38397 ft | 500 kts | 13° |
| 2026-05-05 22:03 | 32.07435 | -97.60421 | 38552 ft | 500 kts | 12° |
| 2026-05-05 22:03 | 32.10628 | -97.58773 | 38682 ft | 501 kts | 12° |
| 2026-05-05 22:04 | 32.13814 | -97.57127 | 38695 ft | 500 kts | 13° |
| 2026-05-05 22:04 | 32.20200 | -97.53825 | 38696 ft | 501 kts | 12° |
| 2026-05-05 22:05 | 32.26535 | -97.50543 | 38694 ft | 501 kts | 12° |
| 2026-05-05 22:05 | 32.32916 | -97.47233 | 38686 ft | 500 kts | 12° |
| 2026-05-05 22:06 | 32.39293 | -97.43919 | 38688 ft | 500 kts | 12° |
| 2026-05-05 22:06 | 32.45651 | -97.40611 | 38689 ft | 499 kts | 12° |
| 2026-05-05 22:07 | 32.51995 | -97.37304 | 38728 ft | 498 kts | 12° |
| 2026-05-05 22:07 | 32.57266 | -97.34553 | 38730 ft | 497 kts | 12° |
| 2026-05-05 22:08 | 32.63597 | -97.31244 | 38729 ft | 496 kts | 12° |
| 2026-05-05 22:08 | 32.69918 | -97.27935 | 38723 ft | 496 kts | 12° |
| 2026-05-05 22:09 | 32.76238 | -97.24621 | 38718 ft | 496 kts | 11° |
| 2026-05-05 22:09 | 32.82541 | -97.21312 | 38715 ft | 495 kts | 11° |
| 2026-05-05 22:10 | 32.88803 | -97.17970 | 38696 ft | 502 kts | 16° |
| 2026-05-05 22:10 | 32.94904 | -97.13800 | 38701 ft | 506 kts | 18° |
| 2026-05-05 22:11 | 33.01003 | -97.09560 | 38706 ft | 506 kts | 18° |
| 2026-05-05 22:11 | 33.07080 | -97.05327 | 38709 ft | 506 kts | 18° |
| 2026-05-05 22:12 | 33.13152 | -97.01090 | 38730 ft | 505 kts | 18° |
| 2026-05-05 22:12 | 33.19217 | -96.96850 | 38729 ft | 505 kts | 18° |
| 2026-05-05 22:13 | 33.25274 | -96.92608 | 38731 ft | 505 kts | 18° |
| 2026-05-05 22:13 | 33.31335 | -96.88358 | 38724 ft | 504 kts | 18° |
| 2026-05-05 22:14 | 33.37349 | -96.84133 | 38730 ft | 504 kts | 18° |
| 2026-05-05 22:14 | 33.43401 | -96.79875 | 38735 ft | 504 kts | 18° |
| 2026-05-05 22:15 | 33.49438 | -96.75621 | 38746 ft | 503 kts | 18° |
| 2026-05-05 22:15 | 33.55470 | -96.71363 | 38750 ft | 503 kts | 18° |
| 2026-05-05 22:16 | 33.61503 | -96.67097 | 38755 ft | 502 kts | 18° |
| 2026-05-05 22:16 | 33.67519 | -96.62837 | 38752 ft | 502 kts | 18° |
| 2026-05-05 22:17 | 33.73541 | -96.58565 | 38758 ft | 501 kts | 18° |
| 2026-05-05 22:17 | 33.79544 | -96.54299 | 38748 ft | 501 kts | 18° |
| 2026-05-05 22:18 | 33.85500 | -96.50061 | 38763 ft | 500 kts | 18° |
| 2026-05-05 22:18 | 33.91489 | -96.45791 | 38765 ft | 500 kts | 18° |
| 2026-05-05 22:19 | 33.97476 | -96.41516 | 38760 ft | 499 kts | 18° |
| 2026-05-05 22:19 | 34.03445 | -96.37247 | 38765 ft | 499 kts | 17° |
| 2026-05-05 22:20 | 34.09412 | -96.32971 | 38757 ft | 498 kts | 17° |
| 2026-05-05 22:20 | 34.15372 | -96.28695 | 38745 ft | 498 kts | 17° |
| 2026-05-05 22:21 | 34.21313 | -96.24424 | 38738 ft | 496 kts | 17° |
| 2026-05-05 22:21 | 34.27242 | -96.20156 | 38731 ft | 496 kts | 17° |
| 2026-05-05 22:22 | 34.33163 | -96.15885 | 38732 ft | 495 kts | 17° |
| 2026-05-05 22:22 | 34.39029 | -96.11648 | 38737 ft | 494 kts | 17° |
| 2026-05-05 22:23 | 34.44926 | -96.07380 | 38731 ft | 493 kts | 17° |
| 2026-05-05 22:23 | 34.50804 | -96.03120 | 38747 ft | 493 kts | 17° |
| 2026-05-05 22:24 | 34.56683 | -95.98852 | 38741 ft | 491 kts | 17° |
| 2026-05-05 22:24 | 34.62540 | -95.94593 | 38749 ft | 491 kts | 17° |
| 2026-05-05 22:25 | 34.68399 | -95.90326 | 38763 ft | 490 kts | 17° |
| 2026-05-05 22:25 | 34.74240 | -95.86065 | 38768 ft | 489 kts | 17° |
| 2026-05-05 22:26 | 34.80077 | -95.81801 | 38774 ft | 488 kts | 17° |
| 2026-05-05 22:26 | 34.85838 | -95.77360 | 38764 ft | 500 kts | 24° |
| 2026-05-05 22:27 | 34.91364 | -95.72208 | 38779 ft | 500 kts | 24° |
| 2026-05-05 22:27 | 34.96840 | -95.67064 | 38776 ft | 499 kts | 24° |
| 2026-05-05 22:28 | 35.02338 | -95.61888 | 38774 ft | 498 kts | 24° |
| 2026-05-05 22:28 | 35.07813 | -95.56724 | 38764 ft | 497 kts | 24° |
| 2026-05-05 22:29 | 35.13278 | -95.51559 | 38762 ft | 496 kts | 24° |
| 2026-05-05 22:29 | 35.18725 | -95.46404 | 38761 ft | 495 kts | 24° |
| 2026-05-05 22:30 | 35.24161 | -95.41250 | 38763 ft | 493 kts | 24° |
| 2026-05-05 22:30 | 35.29581 | -95.36102 | 38756 ft | 493 kts | 24° |
| 2026-05-05 22:31 | 35.34988 | -95.30957 | 38756 ft | 491 kts | 24° |
| 2026-05-05 22:31 | 35.40377 | -95.25821 | 38754 ft | 490 kts | 24° |
| 2026-05-05 22:32 | 35.45756 | -95.20686 | 38761 ft | 489 kts | 24° |
| 2026-05-05 22:32 | 35.51114 | -95.15561 | 38791 ft | 488 kts | 24° |
| 2026-05-05 22:33 | 35.56468 | -95.10431 | 38797 ft | 487 kts | 24° |
| 2026-05-05 22:33 | 35.61800 | -95.05314 | 38787 ft | 486 kts | 24° |
| 2026-05-05 22:34 | 35.67085 | -95.00233 | 38753 ft | 485 kts | 24° |
| 2026-05-05 22:34 | 35.72432 | -94.95083 | 38758 ft | 485 kts | 24° |
| 2026-05-05 22:35 | 35.77737 | -94.89964 | 38765 ft | 484 kts | 23° |
| 2026-05-05 22:35 | 35.83028 | -94.84851 | 38764 ft | 483 kts | 23° |
| 2026-05-05 22:36 | 35.88313 | -94.79734 | 38769 ft | 482 kts | 23° |
| 2026-05-05 22:36 | 35.93556 | -94.74649 | 38783 ft | 482 kts | 23° |
| 2026-05-05 22:37 | 35.98828 | -94.69527 | 38820 ft | 482 kts | 23° |
| 2026-05-05 22:37 | 36.04089 | -94.64407 | 38830 ft | 482 kts | 23° |
| 2026-05-05 22:38 | 36.09351 | -94.59277 | 38843 ft | 481 kts | 23° |
| 2026-05-05 22:38 | 36.14597 | -94.54154 | 38848 ft | 481 kts | 23° |
| 2026-05-05 22:39 | 36.19833 | -94.49031 | 38848 ft | 479 kts | 23° |
| 2026-05-05 22:39 | 36.25052 | -94.43915 | 38844 ft | 478 kts | 23° |
| 2026-05-05 22:40 | 36.30280 | -94.38783 | 38850 ft | 478 kts | 23° |
| 2026-05-05 22:40 | 36.35487 | -94.33662 | 38846 ft | 477 kts | 23° |
| 2026-05-05 22:41 | 36.40654 | -94.28570 | 38886 ft | 477 kts | 23° |
| 2026-05-05 22:41 | 36.45844 | -94.23448 | 38879 ft | 477 kts | 23° |
| 2026-05-05 22:42 | 36.51030 | -94.18320 | 38861 ft | 476 kts | 22° |
| 2026-05-05 22:42 | 36.56212 | -94.13188 | 38856 ft | 476 kts | 22° |
| 2026-05-05 22:43 | 36.61387 | -94.08053 | 38862 ft | 475 kts | 22° |
| 2026-05-05 22:43 | 36.66560 | -94.02912 | 38876 ft | 476 kts | 22° |
| 2026-05-05 22:44 | 36.71726 | -93.97768 | 38878 ft | 475 kts | 22° |
| 2026-05-05 22:44 | 36.76895 | -93.92611 | 38885 ft | 475 kts | 22° |
| 2026-05-05 22:45 | 36.82055 | -93.87455 | 38888 ft | 475 kts | 22° |
| 2026-05-05 22:45 | 36.87174 | -93.82331 | 38881 ft | 475 kts | 22° |
| 2026-05-05 22:46 | 36.92337 | -93.77153 | 38882 ft | 475 kts | 22° |
| 2026-05-05 22:46 | 36.97486 | -93.71979 | 38880 ft | 475 kts | 22° |
| 2026-05-05 22:47 | 37.02643 | -93.66790 | 38881 ft | 475 kts | 23° |
| 2026-05-05 22:47 | 37.07787 | -93.61603 | 38888 ft | 475 kts | 23° |
| 2026-05-05 22:48 | 37.12925 | -93.56414 | 38895 ft | 474 kts | 23° |
| 2026-05-05 22:48 | 37.18064 | -93.51216 | 38905 ft | 475 kts | 23° |
| 2026-05-05 22:49 | 37.23204 | -93.46008 | 38903 ft | 474 kts | 24° |
| 2026-05-05 22:49 | 37.28326 | -93.40809 | 38904 ft | 474 kts | 24° |
| 2026-05-05 22:50 | 37.33454 | -93.35594 | 38902 ft | 474 kts | 24° |
| 2026-05-05 22:50 | 37.38687 | -93.30687 | 38906 ft | 467 kts | 21° |
| 2026-05-05 22:51 | 37.43938 | -93.25864 | 38900 ft | 467 kts | 21° |
| 2026-05-05 22:51 | 37.49177 | -93.21027 | 38893 ft | 467 kts | 22° |
| 2026-05-05 22:52 | 37.54383 | -93.16210 | 38891 ft | 467 kts | 22° |
| 2026-05-05 22:52 | 37.59626 | -93.11352 | 38901 ft | 467 kts | 22° |
| 2026-05-05 22:53 | 37.64871 | -93.06482 | 38909 ft | 467 kts | 22° |
| 2026-05-05 22:53 | 37.70100 | -93.01619 | 38910 ft | 467 kts | 22° |
| 2026-05-05 22:54 | 37.75329 | -92.96746 | 38913 ft | 467 kts | 23° |
| 2026-05-05 22:54 | 37.80558 | -92.91866 | 38933 ft | 467 kts | 23° |
| 2026-05-05 22:55 | 37.84899 | -92.87807 | 38939 ft | 467 kts | 23° |
| 2026-05-05 22:55 | 37.90965 | -92.82126 | 38956 ft | 466 kts | 23° |
| 2026-05-05 22:56 | 37.95332 | -92.78028 | 38962 ft | 466 kts | 23° |
| 2026-05-05 22:56 | 38.00529 | -92.73143 | 38954 ft | 465 kts | 23° |
| 2026-05-05 22:57 | 38.05687 | -92.68285 | 38959 ft | 464 kts | 23° |
| 2026-05-05 22:57 | 38.10864 | -92.63402 | 38948 ft | 464 kts | 23° |
| 2026-05-05 22:58 | 38.16030 | -92.58520 | 38943 ft | 463 kts | 23° |
| 2026-05-05 22:58 | 38.21192 | -92.53634 | 38933 ft | 462 kts | 23° |
| 2026-05-05 22:59 | 38.26343 | -92.48747 | 38926 ft | 461 kts | 23° |
| 2026-05-05 22:59 | 38.31483 | -92.43864 | 38919 ft | 460 kts | 23° |
| 2026-05-05 23:00 | 38.39168 | -92.36545 | 38929 ft | 459 kts | 23° |
| 2026-05-05 23:00 | 38.44281 | -92.31665 | 38945 ft | 459 kts | 23° |
| 2026-05-05 23:01 | 38.49384 | -92.26785 | 38960 ft | 458 kts | 24° |
| 2026-05-05 23:01 | 38.54480 | -92.21903 | 38957 ft | 458 kts | 24° |
| 2026-05-05 23:02 | 38.59571 | -92.17018 | 38959 ft | 457 kts | 24° |
| 2026-05-05 23:02 | 38.64661 | -92.12124 | 38952 ft | 458 kts | 24° |
| 2026-05-05 23:03 | 38.69715 | -92.07257 | 38951 ft | 457 kts | 25° |
| 2026-05-05 23:03 | 38.74792 | -92.02358 | 38954 ft | 458 kts | 25° |
| 2026-05-05 23:04 | 38.79876 | -91.97443 | 38956 ft | 458 kts | 25° |
| 2026-05-05 23:04 | 38.84963 | -91.92517 | 38941 ft | 458 kts | 25° |
| 2026-05-05 23:05 | 38.90052 | -91.87581 | 38932 ft | 459 kts | 26° |
| 2026-05-05 23:05 | 38.95153 | -91.82625 | 38941 ft | 459 kts | 26° |
| 2026-05-05 23:06 | 39.00235 | -91.77599 | 38942 ft | 467 kts | 33° |
| 2026-05-05 23:06 | 39.02433 | -91.74428 | 38953 ft | 480 kts | 42° |
| 2026-05-05 23:06 | 39.04559 | -91.71142 | 38943 ft | 479 kts | 40° |
| 2026-05-05 23:07 | 39.08836 | -91.64538 | 38947 ft | 480 kts | 41° |
| 2026-05-05 23:07 | 39.13065 | -91.57947 | 38939 ft | 480 kts | 41° |
| 2026-05-05 23:08 | 39.17327 | -91.51288 | 38941 ft | 481 kts | 42° |
| 2026-05-05 23:08 | 39.21587 | -91.44620 | 38935 ft | 481 kts | 42° |
| 2026-05-05 23:09 | 39.25842 | -91.37946 | 38926 ft | 482 kts | 42° |
| 2026-05-05 23:09 | 39.30088 | -91.31270 | 38925 ft | 481 kts | 43° |
| 2026-05-05 23:10 | 39.34344 | -91.24565 | 38920 ft | 482 kts | 43° |
| 2026-05-05 23:10 | 39.38590 | -91.17862 | 38917 ft | 482 kts | 43° |
| 2026-05-05 23:11 | 39.42843 | -91.11134 | 38925 ft | 483 kts | 43° |
| 2026-05-05 23:11 | 39.47054 | -91.04456 | 38933 ft | 483 kts | 44° |
| 2026-05-05 23:12 | 39.51301 | -90.97711 | 38926 ft | 483 kts | 44° |
| 2026-05-05 23:12 | 39.55546 | -90.90950 | 38934 ft | 483 kts | 44° |
| 2026-05-05 23:13 | 39.59784 | -90.84183 | 38934 ft | 484 kts | 44° |
| 2026-05-05 23:13 | 39.64025 | -90.77398 | 38938 ft | 484 kts | 44° |
| 2026-05-05 23:14 | 39.68262 | -90.70604 | 38939 ft | 485 kts | 45° |
| 2026-05-05 23:14 | 39.72502 | -90.63791 | 38933 ft | 485 kts | 45° |
| 2026-05-05 23:15 | 39.76751 | -90.56950 | 38933 ft | 485 kts | 45° |
| 2026-05-05 23:15 | 39.80967 | -90.50144 | 38919 ft | 485 kts | 45° |
| 2026-05-05 23:16 | 39.85215 | -90.43275 | 38920 ft | 486 kts | 45° |
| 2026-05-05 23:16 | 39.89429 | -90.36444 | 38914 ft | 486 kts | 45° |
| 2026-05-05 23:17 | 39.93669 | -90.29558 | 38918 ft | 487 kts | 45° |
| 2026-05-05 23:17 | 39.98287 | -90.23280 | 38919 ft | 475 kts | 33° |
| 2026-05-05 23:18 | 40.03312 | -90.17629 | 38922 ft | 477 kts | 34° |
| 2026-05-05 23:18 | 40.08349 | -90.11963 | 38912 ft | 477 kts | 34° |
| 2026-05-05 23:19 | 40.13389 | -90.06288 | 38919 ft | 478 kts | 34° |
| 2026-05-05 23:19 | 40.18034 | -90.01046 | 38695 ft | 476 kts | 34° |
| 2026-05-05 23:20 | 40.20513 | -89.98246 | 38204 ft | 473 kts | 34° |
| 2026-05-05 23:20 | 40.22997 | -89.95438 | 37559 ft | 472 kts | 34° |
| 2026-05-05 23:20 | 40.25459 | -89.92650 | 37063 ft | 468 kts | 34° |
| 2026-05-05 23:20 | 40.27915 | -89.89866 | 36606 ft | 464 kts | 34° |
| 2026-05-05 23:21 | 40.30344 | -89.87112 | 36125 ft | 460 kts | 34° |
| 2026-05-05 23:21 | 40.32759 | -89.84370 | 35635 ft | 457 kts | 34° |
| 2026-05-05 23:21 | 40.35163 | -89.81637 | 35100 ft | 456 kts | 34° |
| 2026-05-05 23:21 | 40.37556 | -89.78913 | 34576 ft | 455 kts | 34° |
| 2026-05-05 23:22 | 40.39937 | -89.76203 | 34127 ft | 452 kts | 34° |
| 2026-05-05 23:22 | 40.42303 | -89.73505 | 33628 ft | 449 kts | 35° |
| 2026-05-05 23:22 | 40.44659 | -89.70816 | 33074 ft | 448 kts | 35° |
| 2026-05-05 23:22 | 40.47000 | -89.68142 | 32572 ft | 445 kts | 35° |
| 2026-05-05 23:23 | 40.49327 | -89.65483 | 32096 ft | 442 kts | 36° |
| 2026-05-05 23:23 | 40.51643 | -89.62831 | 31612 ft | 440 kts | 36° |
| 2026-05-05 23:23 | 40.53912 | -89.60233 | 31121 ft | 438 kts | 36° |
| 2026-05-05 23:23 | 40.56202 | -89.57606 | 30635 ft | 436 kts | 36° |
| 2026-05-05 23:24 | 40.58483 | -89.54989 | 30149 ft | 434 kts | 37° |
| 2026-05-05 23:24 | 40.60763 | -89.52371 | 29600 ft | 433 kts | 37° |
| 2026-05-05 23:24 | 40.63028 | -89.49767 | 29069 ft | 431 kts | 37° |
| 2026-05-05 23:24 | 40.65280 | -89.47175 | 28580 ft | 427 kts | 37° |
| 2026-05-05 23:25 | 40.67511 | -89.44606 | 28113 ft | 424 kts | 37° |
| 2026-05-05 23:25 | 40.69722 | -89.42057 | 27638 ft | 421 kts | 37° |
| 2026-05-05 23:25 | 40.71916 | -89.39526 | 27164 ft | 419 kts | 37° |
| 2026-05-05 23:25 | 40.74099 | -89.36977 | 26625 ft | 418 kts | 38° |
| 2026-05-05 23:26 | 40.76260 | -89.34397 | 26083 ft | 418 kts | 38° |
| 2026-05-05 23:26 | 40.78412 | -89.31833 | 25614 ft | 417 kts | 38° |
| 2026-05-05 23:26 | 40.80564 | -89.29270 | 25088 ft | 417 kts | 38° |
| 2026-05-05 23:26 | 40.82718 | -89.26702 | 24553 ft | 417 kts | 38° |
| 2026-05-05 23:27 | 40.84874 | -89.24131 | 24015 ft | 418 kts | 38° |
| 2026-05-05 23:27 | 40.87003 | -89.21589 | 23479 ft | 418 kts | 38° |
| 2026-05-05 23:27 | 40.89162 | -89.19010 | 22869 ft | 419 kts | 38° |
| 2026-05-05 23:27 | 40.91346 | -89.16396 | 22313 ft | 417 kts | 37° |
| 2026-05-05 23:28 | 40.93475 | -89.13847 | 21776 ft | 418 kts | 37° |
| 2026-05-05 23:28 | 40.95628 | -89.11267 | 21243 ft | 417 kts | 37° |
| 2026-05-05 23:28 | 40.97780 | -89.08686 | 20707 ft | 417 kts | 38° |
| 2026-05-05 23:28 | 40.99930 | -89.06105 | 20162 ft | 417 kts | 38° |
| 2026-05-05 23:29 | 41.02083 | -89.03518 | 19617 ft | 417 kts | 38° |
| 2026-05-05 23:29 | 41.04233 | -89.00932 | 19085 ft | 417 kts | 38° |
| 2026-05-05 23:29 | 41.06382 | -88.98346 | 18555 ft | 417 kts | 38° |
| 2026-05-05 23:29 | 41.08528 | -88.95760 | 17992 ft | 417 kts | 39° |
| 2026-05-05 23:30 | 41.10670 | -88.93178 | 17411 ft | 415 kts | 39° |
| 2026-05-05 23:30 | 41.12804 | -88.90602 | 16866 ft | 413 kts | 39° |
| 2026-05-05 23:30 | 41.14916 | -88.88050 | 16336 ft | 410 kts | 38° |
| 2026-05-05 23:30 | 41.17019 | -88.85507 | 15818 ft | 407 kts | 38° |
| 2026-05-05 23:31 | 41.19102 | -88.82988 | 15296 ft | 404 kts | 38° |
| 2026-05-05 23:31 | 41.21171 | -88.80480 | 14771 ft | 401 kts | 38° |
| 2026-05-05 23:31 | 41.23228 | -88.77985 | 14242 ft | 399 kts | 38° |
| 2026-05-05 23:31 | 41.25266 | -88.75512 | 13772 ft | 395 kts | 38° |
| 2026-05-05 23:32 | 41.27284 | -88.73061 | 13243 ft | 391 kts | 38° |
| 2026-05-05 23:32 | 41.29256 | -88.70662 | 12732 ft | 387 kts | 38° |
| 2026-05-05 23:32 | 41.31230 | -88.68259 | 12233 ft | 383 kts | 39° |
| 2026-05-05 23:32 | 41.33184 | -88.65881 | 11785 ft | 378 kts | 39° |
| 2026-05-05 23:33 | 41.35109 | -88.63534 | 11325 ft | 373 kts | 39° |
| 2026-05-05 23:33 | 41.37015 | -88.61219 | 10954 ft | 366 kts | 38° |
| 2026-05-05 23:33 | 41.38871 | -88.59023 | 10926 ft | 349 kts | 38° |
| 2026-05-05 23:33 | 41.40643 | -88.56923 | 10894 ft | 332 kts | 38° |
| 2026-05-05 23:34 | 41.42324 | -88.54928 | 10863 ft | 316 kts | 38° |
| 2026-05-05 23:34 | 41.43935 | -88.53013 | 10837 ft | 304 kts | 38° |
| 2026-05-05 23:34 | 41.44447 | -88.52405 | 10820 ft | 305 kts | 38° |
| 2026-05-05 23:34 | 41.45899 | -88.50678 | 10777 ft | 299 kts | 38° |
| 2026-05-05 23:35 | 41.47467 | -88.48811 | 10750 ft | 305 kts | 38° |
| 2026-05-05 23:35 | 41.49053 | -88.46922 | 10752 ft | 306 kts | 38° |
| 2026-05-05 23:35 | 41.50641 | -88.45029 | 10753 ft | 307 kts | 38° |
| 2026-05-05 23:35 | 41.52237 | -88.43124 | 10753 ft | 308 kts | 38° |
| 2026-05-05 23:36 | 41.53831 | -88.41221 | 10739 ft | 308 kts | 38° |
| 2026-05-05 23:36 | 41.55430 | -88.39310 | 10720 ft | 309 kts | 38° |
| 2026-05-05 23:36 | 41.57026 | -88.37403 | 10694 ft | 308 kts | 38° |
| 2026-05-05 23:36 | 41.58625 | -88.35489 | 10668 ft | 308 kts | 38° |
| 2026-05-05 23:37 | 41.60227 | -88.33572 | 10637 ft | 309 kts | 38° |
| 2026-05-05 23:37 | 41.61829 | -88.31659 | 10616 ft | 309 kts | 38° |
| 2026-05-05 23:37 | 41.63434 | -88.29753 | 10582 ft | 309 kts | 38° |
| 2026-05-05 23:37 | 41.65043 | -88.27839 | 10559 ft | 309 kts | 38° |
| 2026-05-05 23:38 | 41.66659 | -88.25917 | 10525 ft | 314 kts | 38° |
| 2026-05-05 23:38 | 41.68310 | -88.23952 | 10502 ft | 319 kts | 38° |
| 2026-05-05 23:38 | 41.69973 | -88.21970 | 10472 ft | 320 kts | 38° |
| 2026-05-05 23:38 | 41.71638 | -88.19983 | 10447 ft | 320 kts | 38° |
| 2026-05-05 23:39 | 41.73302 | -88.17997 | 10425 ft | 320 kts | 38° |
| 2026-05-05 23:39 | 41.74961 | -88.16016 | 10395 ft | 320 kts | 38° |
| 2026-05-05 23:39 | 41.76632 | -88.14018 | 10367 ft | 321 kts | 38° |
| 2026-05-05 23:39 | 41.78294 | -88.12030 | 10326 ft | 321 kts | 38° |
| 2026-05-05 23:40 | 41.79931 | -88.10071 | 10307 ft | 321 kts | 38° |
| 2026-05-05 23:40 | 41.81549 | -88.07989 | 10257 ft | 322 kts | 41° |
| 2026-05-05 23:40 | 41.83140 | -88.05877 | 10219 ft | 322 kts | 41° |
| 2026-05-05 23:40 | 41.84759 | -88.03740 | 10167 ft | 322 kts | 41° |
| 2026-05-05 23:41 | 41.86356 | -88.01634 | 10118 ft | 322 kts | 41° |
| 2026-05-05 23:41 | 41.87821 | -87.99359 | 10083 ft | 323 kts | 57° |
| 2026-05-05 23:41 | 41.88643 | -87.96637 | 9904 ft | 321 kts | 80° |
| 2026-05-05 23:41 | 41.88722 | -87.93651 | 9659 ft | 321 kts | 96° |
| 2026-05-05 23:42 | 41.88627 | -87.90660 | 9308 ft | 321 kts | 94° |
| 2026-05-05 23:42 | 41.88562 | -87.87664 | 8931 ft | 319 kts | 93° |
| 2026-05-05 23:42 | 41.88508 | -87.84701 | 8566 ft | 316 kts | 92° |
| 2026-05-05 23:42 | 41.88461 | -87.81766 | 8212 ft | 313 kts | 92° |
| 2026-05-05 23:43 | 41.88440 | -87.79838 | 7971 ft | 311 kts | 90° |
| 2026-05-05 23:43 | 41.88439 | -87.76943 | 7580 ft | 309 kts | 90° |
| 2026-05-05 23:43 | 41.88437 | -87.74076 | 7236 ft | 305 kts | 89° |
| 2026-05-05 23:43 | 41.88434 | -87.71243 | 6895 ft | 302 kts | 89° |
| 2026-05-05 23:44 | 41.88428 | -87.68439 | 6555 ft | 298 kts | 89° |
| 2026-05-05 23:44 | 41.88423 | -87.65694 | 6215 ft | 288 kts | 89° |
| 2026-05-05 23:44 | 41.88415 | -87.63068 | 5874 ft | 276 kts | 89° |
| 2026-05-05 23:44 | 41.88408 | -87.60557 | 5586 ft | 263 kts | 89° |
| 2026-05-05 23:45 | 41.88401 | -87.58172 | 5293 ft | 246 kts | 89° |
| 2026-05-05 23:45 | 41.88395 | -87.55946 | 4991 ft | 234 kts | 89° |
| 2026-05-05 23:45 | 41.88388 | -87.53761 | 4693 ft | 233 kts | 89° |
| 2026-05-05 23:45 | 41.88381 | -87.51588 | 4380 ft | 232 kts | 89° |
| 2026-05-05 23:46 | 41.88373 | -87.49425 | 4104 ft | 232 kts | 88° |
| 2026-05-05 23:46 | 41.88447 | -87.47267 | 4523 ft | 226 kts | 76° |
| 2026-05-05 23:46 | 41.89142 | -87.45416 | 5505 ft | 227 kts | 45° |
| 2026-05-05 23:46 | 41.90434 | -87.44356 | 6437 ft | 219 kts | 11° |
| 2026-05-05 23:47 | 41.91949 | -87.44163 | 7257 ft | 220 kts | 356° |
| 2026-05-05 23:47 | 41.93494 | -87.44132 | 7768 ft | 225 kts | 355° |
| 2026-05-05 23:47 | 41.95035 | -87.44311 | 7670 ft | 218 kts | 335° |
| 2026-05-05 23:47 | 41.96216 | -87.45435 | 7461 ft | 205 kts | 303° |
| 2026-05-05 23:48 | 41.96672 | -87.47193 | 7245 ft | 201 kts | 273° |
| 2026-05-05 23:48 | 41.96657 | -87.49079 | 7043 ft | 203 kts | 269° |
| 2026-05-05 23:48 | 41.96632 | -87.50985 | 6678 ft | 204 kts | 270° |
| 2026-05-05 23:48 | 41.96619 | -87.52897 | 6326 ft | 205 kts | 271° |
| 2026-05-05 23:49 | 41.96613 | -87.54809 | 5974 ft | 205 kts | 271° |
| 2026-05-05 23:49 | 41.96609 | -87.56730 | 5630 ft | 205 kts | 271° |
| 2026-05-05 23:49 | 41.96606 | -87.58644 | 5304 ft | 204 kts | 271° |
| 2026-05-05 23:49 | 41.96604 | -87.60544 | 4989 ft | 203 kts | 271° |
| 2026-05-05 23:50 | 41.96602 | -87.62442 | 4689 ft | 203 kts | 271° |
| 2026-05-05 23:50 | 41.96601 | -87.64338 | 4390 ft | 203 kts | 271° |
| 2026-05-05 23:50 | 41.96598 | -87.66226 | 4086 ft | 201 kts | 272° |
| 2026-05-05 23:50 | 41.96597 | -87.68102 | 3810 ft | 201 kts | 271° |
| 2026-05-05 23:51 | 41.96595 | -87.69972 | 3520 ft | 200 kts | 271° |
| 2026-05-05 23:51 | 41.96594 | -87.71839 | 3251 ft | 199 kts | 272° |
| 2026-05-05 23:51 | 41.96592 | -87.73665 | 2984 ft | 194 kts | 271° |
| 2026-05-05 23:51 | 41.96590 | -87.75419 | 2731 ft | 182 kts | 272° |
| 2026-05-05 23:52 | 41.96588 | -87.77084 | 2477 ft | 176 kts | 272° |
| 2026-05-05 23:52 | 41.96587 | -87.78695 | 2243 ft | 166 kts | 272° |
| 2026-05-05 23:52 | 41.96585 | -87.80217 | 2024 ft | 162 kts | 271° |
| 2026-05-05 23:52 | 41.96583 | -87.81709 | 1804 ft | 155 kts | 272° |
| 2026-05-05 23:53 | 41.96582 | -87.83085 | 1593 ft | 142 kts | 272° |
| 2026-05-05 23:53 | 41.96582 | -87.84344 | 1399 ft | 132 kts | 271° |
| 2026-05-05 23:53 | 41.96577 | -87.85584 | 1206 ft | 132 kts | 269° |
| 2026-05-05 23:53 | 41.96569 | -87.86813 | 1031 ft | 131 kts | 273° |
| 2026-05-05 23:54 | 41.96572 | -87.88026 | 883 ft | 130 kts | 272° |
| 2026-05-05 23:54 | 41.96572 | -87.89228 | 710 ft | 128 kts | 274° |
| 2026-05-05 23:54 | 41.96577 | -87.90313 | 671 ft | 89 kts | 269° |
| 2026-05-05 23:54 | 41.96575 | -87.90861 | 671 ft | 40 kts | 269° |
| 2026-05-05 23:55 | 41.96587 | -87.91241 | 670 ft | 37 kts | 282° |
| 2026-05-05 23:55 | 41.96679 | -87.91492 | 672 ft | 21 kts | 335° |
| 2026-05-05 23:55 | 41.96737 | -87.91410 | 672 ft | 13 kts | 88° |
| 2026-05-05 23:55 | 41.96737 | -87.91279 | 672 ft | 15 kts | 88° |
| 2026-05-05 23:56 | 41.96738 | -87.91113 | 671 ft | 20 kts | 90° |
| 2026-05-05 23:56 | 41.96738 | -87.90895 | 671 ft | 26 kts | 90° |
| 2026-05-05 23:56 | 41.96739 | -87.90663 | 671 ft | 27 kts | 89° |
| 2026-05-05 23:56 | 41.96739 | -87.90389 | 671 ft | 32 kts | 90° |
| 2026-05-05 23:57 | 41.96740 | -87.90090 | 671 ft | 29 kts | 90° |
| 2026-05-05 23:57 | 41.96741 | -87.89804 | 672 ft | 30 kts | 90° |
| 2026-05-05 23:57 | 41.96741 | -87.89508 | 671 ft | 28 kts | 87° |
| 2026-05-05 23:57 | 41.96811 | -87.89436 | 672 ft | 13 kts | 360° |
| 2026-05-05 23:58 | 41.96920 | -87.89437 | 672 ft | 19 kts | 0° |
| 2026-05-05 23:58 | 41.97041 | -87.89437 | 672 ft | 13 kts | 355° |
| 2026-05-05 23:58 | 41.97100 | -87.89551 | 671 ft | 18 kts | 295° |
| 2026-05-05 23:58 | 41.97202 | -87.89679 | 671 ft | 22 kts | 326° |
| 2026-05-05 23:59 | 41.97248 | -87.89790 | 671 ft | 17 kts | 245° |
| 2026-05-05 23:59 | 41.97206 | -87.89958 | 671 ft | 22 kts | 268° |
| 2026-05-05 23:59 | 41.97205 | -87.90180 | 671 ft | 24 kts | 269° |
| 2026-05-05 23:59 | 41.97208 | -87.90429 | 671 ft | 27 kts | 272° |
| 2026-05-06 00:00 | 41.97220 | -87.90641 | 670 ft | 22 kts | 277° |
| 2026-05-06 00:00 | 41.97275 | -87.90721 | 671 ft | 13 kts | 1° |
| 2026-05-06 00:00 | 41.97371 | -87.90722 | 671 ft | 12 kts | 1° |
| 2026-05-06 00:00 | 41.97436 | -87.90716 | 671 ft | 6 kts | 3° |
| 2026-05-06 00:01 | 41.97459 | -87.90717 | 671 ft | 1 kts | 353° |
| 2026-05-06 00:01 | 41.97473 | -87.90720 | 671 ft | 3 kts | 349° |
| 2026-05-06 00:01 | 41.97476 | -87.90721 | 671 ft | 0 kts | 349° |